createdAt,value
2019-03-25T00:01:36.883Z,6.70
2019-03-25T00:04:06.748Z,6.70
2019-03-25T00:06:37.387Z,6.70
2019-03-25T00:09:08.347Z,6.60
2019-03-25T00:11:38.201Z,6.60
2019-03-25T00:14:08.035Z,6.50
2019-03-25T00:16:37.916Z,6.40
2019-03-25T00:19:07.773Z,6.40
2019-03-25T00:21:38.033Z,6.50
2019-03-25T00:24:07.893Z,6.50
2019-03-25T00:26:37.755Z,6.40
2019-03-25T00:29:07.625Z,6.30
2019-03-25T00:31:37.476Z,6.30
2019-03-25T00:34:07.639Z,6.30
2019-03-25T00:36:37.492Z,6.30
2019-03-25T00:39:08.262Z,6.40
2019-03-25T00:41:38.135Z,6.50
2019-03-25T00:44:07.972Z,6.50
2019-03-25T00:46:37.873Z,6.50
2019-03-25T00:49:07.667Z,6.40
2019-03-25T00:51:37.520Z,6.30
2019-03-25T00:54:07.355Z,6.30
2019-03-25T00:56:37.144Z,6.30
2019-03-25T00:59:07.003Z,6.30
2019-03-25T01:01:36.887Z,6.30
2019-03-25T01:04:06.685Z,6.30
2019-03-25T01:06:36.554Z,6.30
2019-03-25T01:09:07.430Z,6.20
2019-03-25T01:11:48.420Z,6.20
2019-03-25T01:14:08.750Z,6.10
2019-03-25T01:16:38.516Z,6.10
2019-03-25T01:19:08.302Z,6.00
2019-03-25T01:21:38.165Z,5.90
2019-03-25T01:24:08.019Z,5.90
2019-03-25T01:26:37.796Z,6.00
2019-03-25T01:29:08.063Z,6.00
2019-03-25T01:31:37.874Z,6.00
2019-03-25T01:34:07.663Z,5.90
2019-03-25T01:36:37.468Z,5.90
2019-03-25T01:39:07.945Z,5.90
2019-03-25T01:41:37.743Z,5.80
2019-03-25T01:44:07.602Z,5.80
2019-03-25T01:46:37.417Z,5.70
2019-03-25T01:49:07.495Z,5.70
2019-03-25T01:51:37.274Z,5.60
2019-03-25T01:54:07.126Z,5.50
2019-03-25T01:56:36.973Z,5.50
2019-03-25T01:59:06.766Z,5.50
2019-03-25T02:01:36.566Z,5.50
2019-03-25T02:04:06.421Z,5.50
2019-03-25T02:06:36.197Z,5.50
2019-03-25T02:09:07.375Z,5.50
2019-03-25T02:11:37.224Z,5.50
2019-03-25T02:14:07.080Z,5.50
2019-03-25T02:16:36.943Z,5.50
2019-03-25T02:19:06.747Z,5.40
2019-03-25T02:21:36.554Z,5.40
2019-03-25T02:24:06.443Z,5.40
2019-03-25T02:26:36.216Z,5.40
2019-03-25T02:29:06.035Z,5.30
2019-03-25T02:31:35.849Z,5.30
2019-03-25T02:34:05.683Z,5.20
2019-03-25T02:36:35.526Z,5.10
2019-03-25T02:39:06.292Z,5.10
2019-03-25T02:41:36.166Z,5.00
2019-03-25T02:44:06.023Z,5.00
2019-03-25T02:46:35.836Z,5.10
2019-03-25T02:49:05.639Z,5.00
2019-03-25T02:51:35.783Z,5.00
2019-03-25T02:54:05.970Z,4.90
2019-03-25T02:56:35.740Z,4.80
2019-03-25T02:59:05.524Z,4.90
2019-03-25T03:01:35.428Z,4.80
2019-03-25T03:04:05.275Z,4.70
2019-03-25T03:06:35.051Z,4.70
2019-03-25T03:09:08.024Z,4.60
2019-03-25T03:11:38.147Z,4.60
2019-03-25T03:14:08.273Z,4.70
2019-03-25T03:16:38.148Z,4.70
2019-03-25T03:19:07.994Z,4.80
2019-03-25T03:21:37.856Z,4.70
2019-03-25T03:24:07.641Z,4.70
2019-03-25T03:26:37.497Z,4.60
2019-03-25T03:29:07.274Z,4.60
2019-03-25T03:31:37.086Z,4.50
2019-03-25T03:34:06.903Z,4.40
2019-03-25T03:36:36.911Z,4.30
2019-03-25T03:39:07.505Z,4.30
2019-03-25T03:41:37.537Z,4.20
2019-03-25T03:44:09.171Z,4.10
2019-03-25T03:46:38.979Z,4.10
2019-03-25T03:49:08.834Z,4.00
2019-03-25T03:51:38.899Z,3.90
2019-03-25T03:54:08.800Z,3.90
2019-03-25T03:56:38.588Z,3.90
2019-03-25T03:59:08.386Z,3.80
2019-03-25T04:01:38.270Z,3.70
2019-03-25T04:04:08.135Z,3.70
2019-03-25T04:06:38.103Z,3.70
2019-03-25T04:09:08.158Z,3.60
2019-03-25T04:11:38.017Z,3.50
2019-03-25T04:14:07.903Z,3.50
2019-03-25T04:16:37.702Z,3.40
2019-03-25T04:19:07.492Z,3.30
2019-03-25T04:21:37.617Z,3.30
2019-03-25T04:24:07.410Z,3.20
2019-03-25T04:26:37.287Z,3.20
2019-03-25T04:29:07.076Z,3.20
2019-03-25T04:31:36.891Z,3.10
2019-03-25T04:34:06.751Z,3.10
2019-03-25T04:36:36.543Z,3.00
2019-03-25T04:39:07.818Z,3.00
2019-03-25T04:41:37.667Z,2.90
2019-03-25T04:44:07.493Z,2.90
2019-03-25T04:46:37.338Z,2.70
2019-03-25T04:49:07.199Z,2.60
2019-03-25T04:51:37.063Z,2.50
2019-03-25T04:54:06.921Z,2.50
2019-03-25T04:56:39.829Z,2.50
2019-03-25T04:59:08.138Z,2.50
2019-03-25T05:01:37.946Z,2.60
2019-03-25T05:04:07.819Z,2.60
2019-03-25T05:06:37.605Z,2.60
2019-03-25T05:09:07.663Z,2.60
2019-03-25T05:11:37.438Z,2.60
2019-03-25T05:14:08.335Z,2.50
2019-03-25T05:16:38.122Z,2.60
2019-03-25T05:19:07.916Z,2.60
2019-03-25T05:21:37.804Z,2.70
2019-03-25T05:24:07.650Z,2.70
2019-03-25T05:26:37.439Z,2.80
2019-03-25T05:29:07.232Z,2.90
2019-03-25T05:31:37.077Z,3.00
2019-03-25T05:34:06.940Z,3.20
2019-03-25T05:36:36.842Z,3.40
2019-03-25T05:39:08.305Z,3.60
2019-03-25T05:41:38.094Z,3.70
2019-03-25T05:44:07.954Z,3.90
2019-03-25T05:46:37.763Z,4.10
2019-03-25T05:49:07.533Z,4.20
2019-03-25T05:51:37.364Z,4.30
2019-03-25T05:54:07.225Z,4.50
2019-03-25T05:56:38.230Z,4.60
2019-03-25T05:59:08.249Z,4.70
2019-03-25T06:01:38.145Z,4.80
2019-03-25T06:04:08.469Z,4.90
2019-03-25T06:06:38.838Z,5.00
2019-03-25T06:09:08.708Z,5.10
2019-03-25T06:11:38.622Z,5.10
2019-03-25T06:14:08.547Z,5.20
2019-03-25T06:16:39.007Z,5.30
2019-03-25T06:19:08.913Z,5.40
2019-03-25T06:21:38.874Z,5.60
2019-03-25T06:24:08.862Z,5.70
2019-03-25T06:26:38.878Z,5.90
2019-03-25T06:29:08.813Z,6.10
2019-03-25T06:31:38.742Z,6.10
2019-03-25T06:34:08.669Z,6.20
2019-03-25T06:36:38.574Z,6.30
2019-03-25T06:39:08.493Z,6.50
2019-03-25T06:41:38.404Z,6.60
2019-03-25T06:44:08.419Z,6.80
2019-03-25T06:46:38.277Z,6.80
2019-03-25T06:49:08.912Z,6.90
2019-03-25T06:51:38.839Z,7.10
2019-03-25T06:54:08.711Z,7.20
2019-03-25T06:56:38.507Z,7.40
2019-03-25T06:59:08.288Z,7.50
2019-03-25T07:01:38.151Z,7.60
2019-03-25T07:04:07.948Z,7.70
2019-03-25T07:06:37.791Z,7.80
2019-03-25T07:09:08.841Z,8.00
2019-03-25T07:11:38.827Z,8.10
2019-03-25T07:14:09.393Z,8.30
2019-03-25T07:16:39.486Z,8.30
2019-03-25T07:19:09.335Z,8.30
2019-03-25T07:21:39.276Z,8.20
2019-03-25T07:24:09.084Z,8.20
2019-03-25T07:26:38.970Z,8.20
2019-03-25T07:29:08.906Z,8.20
2019-03-25T07:31:38.714Z,8.30
2019-03-25T07:34:08.504Z,8.40
2019-03-25T07:36:38.308Z,8.50
2019-03-25T07:39:08.222Z,8.60
2019-03-25T07:41:38.380Z,8.60
2019-03-25T07:44:08.852Z,8.60
2019-03-25T07:46:38.940Z,8.70
2019-03-25T07:49:08.806Z,8.70
2019-03-25T07:51:38.626Z,8.70
2019-03-25T07:54:08.423Z,8.70
2019-03-25T07:56:38.227Z,8.70
2019-03-25T07:59:08.121Z,8.60
2019-03-25T08:01:37.991Z,8.50
2019-03-25T08:04:07.836Z,8.50
2019-03-25T08:06:37.697Z,8.50
2019-03-25T08:09:08.988Z,8.60
2019-03-25T08:11:38.802Z,8.60
2019-03-25T08:14:08.668Z,8.50
2019-03-25T08:16:38.485Z,8.50
2019-03-25T08:19:08.418Z,8.60
2019-03-25T08:21:38.300Z,8.60
2019-03-25T08:24:08.587Z,8.90
2019-03-25T08:26:38.452Z,9.00
2019-03-25T08:29:08.301Z,9.20
2019-03-25T08:31:38.210Z,9.30
2019-03-25T08:34:07.998Z,9.30
2019-03-25T08:36:37.862Z,9.40
2019-03-25T08:39:08.285Z,9.50
2019-03-25T08:41:38.151Z,9.60
2019-03-25T08:44:07.954Z,9.70
2019-03-25T08:46:37.861Z,10.00
2019-03-25T08:49:07.638Z,10.30
2019-03-25T08:51:37.541Z,10.70
2019-03-25T08:54:07.357Z,10.90
2019-03-25T08:56:37.209Z,10.70
2019-03-25T08:59:06.997Z,10.60
2019-03-25T09:01:36.850Z,10.40
2019-03-25T09:04:07.206Z,10.20
2019-03-25T09:06:37.033Z,10.20
2019-03-25T09:09:08.469Z,10.00
2019-03-25T09:11:38.259Z,9.90
2019-03-25T09:14:08.655Z,9.90
2019-03-25T09:16:38.425Z,9.90
2019-03-25T09:19:08.224Z,9.80
2019-03-25T09:21:40.095Z,9.80
2019-03-25T09:24:13.641Z,9.80
2019-03-25T09:26:43.553Z,9.90
2019-03-25T09:29:13.391Z,10.00
2019-03-25T09:31:43.256Z,10.00
2019-03-25T09:34:13.140Z,10.10
2019-03-25T09:36:43.038Z,10.30
2019-03-25T09:39:12.883Z,10.60
2019-03-25T09:41:42.770Z,10.80
2019-03-25T09:44:12.626Z,11.20
2019-03-25T09:46:43.084Z,11.30
2019-03-25T09:49:12.950Z,11.30
2019-03-25T09:51:42.829Z,11.20
2019-03-25T09:54:12.628Z,11.10
2019-03-25T09:56:42.495Z,11.20
2019-03-25T09:59:12.270Z,11.10
2019-03-25T10:01:42.163Z,11.10
2019-03-25T10:04:11.968Z,11.00
2019-03-25T10:06:41.779Z,10.90
2019-03-25T10:09:12.278Z,10.80
2019-03-25T10:11:42.148Z,10.60
2019-03-25T10:14:12.644Z,10.50
2019-03-25T10:16:42.491Z,10.40
2019-03-25T10:19:12.284Z,10.30
2019-03-25T10:21:42.201Z,10.30
2019-03-25T10:24:11.998Z,10.20
2019-03-25T10:26:41.848Z,10.20
2019-03-25T10:29:11.639Z,10.20
2019-03-25T10:31:41.648Z,10.10
2019-03-25T10:34:11.520Z,10.10
2019-03-25T10:36:41.319Z,10.10
2019-03-25T10:39:11.094Z,9.90
2019-03-25T10:41:40.973Z,9.90
2019-03-25T10:44:10.763Z,9.90
2019-03-25T10:46:40.618Z,10.10
2019-03-25T10:49:10.500Z,10.10
2019-03-25T10:51:40.293Z,10.20
2019-03-25T10:54:10.162Z,10.00
2019-03-25T10:56:48.831Z,10.00
2019-03-25T10:59:11.482Z,10.00
2019-03-25T11:01:41.342Z,9.80
2019-03-25T11:04:11.492Z,9.80
2019-03-25T11:06:41.278Z,9.80
2019-03-25T11:09:11.186Z,9.80
2019-03-25T11:11:41.051Z,9.80
2019-03-25T11:14:10.898Z,9.80
2019-03-25T11:16:40.746Z,9.80
2019-03-25T11:19:10.547Z,9.80
2019-03-25T11:21:40.339Z,9.80
2019-03-25T11:24:10.564Z,9.70
2019-03-25T11:26:40.455Z,9.60
2019-03-25T11:29:10.496Z,9.50
2019-03-25T11:31:40.397Z,9.30
2019-03-25T11:34:10.278Z,9.20
2019-03-25T11:36:40.148Z,9.20
2019-03-25T11:39:10.507Z,9.10
2019-03-25T11:41:40.340Z,9.00
2019-03-25T11:44:10.563Z,9.00
2019-03-25T11:46:40.445Z,8.80
2019-03-25T11:49:10.380Z,8.70
2019-03-25T11:51:40.227Z,8.70
2019-03-25T11:54:10.090Z,8.60
2019-03-25T11:56:39.966Z,8.60
2019-03-25T11:59:18.354Z,8.50
2019-03-25T12:01:41.305Z,8.40
2019-03-25T12:04:12.165Z,8.30
2019-03-25T12:06:42.614Z,8.20
2019-03-25T12:09:12.392Z,8.10
2019-03-25T12:11:42.261Z,8.10
2019-03-25T12:14:12.090Z,8.00
2019-03-25T12:16:41.874Z,8.00
2019-03-25T12:19:11.661Z,7.90
2019-03-25T12:21:41.500Z,7.90
2019-03-25T12:24:11.751Z,7.90
2019-03-25T12:26:41.541Z,7.90
2019-03-25T12:29:11.443Z,7.90
2019-03-25T12:31:41.300Z,7.90
2019-03-25T12:34:11.170Z,7.70
2019-03-25T12:36:41.007Z,7.70
2019-03-25T12:39:10.788Z,7.90
2019-03-25T12:41:40.587Z,8.20
2019-03-25T12:44:10.498Z,8.30
2019-03-25T12:46:40.391Z,8.40
2019-03-25T12:49:10.230Z,8.60
2019-03-25T12:51:40.371Z,8.80
2019-03-25T12:54:10.223Z,8.90
2019-03-25T12:56:40.010Z,8.80
2019-03-25T12:59:09.839Z,8.60
2019-03-25T13:01:40.008Z,8.50
2019-03-25T13:04:09.883Z,8.50
2019-03-25T13:06:39.743Z,8.40
2019-03-25T13:09:09.627Z,8.40
2019-03-25T13:11:39.489Z,8.50
2019-03-25T13:14:11.177Z,8.50
2019-03-25T13:16:41.068Z,8.50
2019-03-25T13:19:11.374Z,8.40
2019-03-25T13:21:41.151Z,8.50
2019-03-25T13:24:11.071Z,8.50
2019-03-25T13:26:40.845Z,8.50
2019-03-25T13:29:10.713Z,8.50
2019-03-25T13:31:40.577Z,8.60
2019-03-25T13:34:10.482Z,8.70
2019-03-25T13:36:40.250Z,8.90
2019-03-25T13:39:10.431Z,9.30
2019-03-25T13:41:41.020Z,9.50
2019-03-25T13:44:10.832Z,9.70
2019-03-25T13:46:40.731Z,10.00
2019-03-25T13:49:11.435Z,10.60
2019-03-25T13:51:41.252Z,11.00
2019-03-25T13:54:11.148Z,11.40
2019-03-25T13:56:41.017Z,11.80
2019-03-25T13:59:10.791Z,11.90
2019-03-25T14:01:40.696Z,11.90
2019-03-25T14:04:10.553Z,12.10
2019-03-25T14:06:40.375Z,12.30
2019-03-25T14:09:10.270Z,12.30
2019-03-25T14:11:40.112Z,12.40
2019-03-25T14:14:09.926Z,12.70
2019-03-25T14:16:40.243Z,12.90
2019-03-25T14:19:10.132Z,12.70
2019-03-25T14:21:40.058Z,12.50
2019-03-25T14:24:09.997Z,12.10
2019-03-25T14:26:39.846Z,11.60
2019-03-25T14:29:09.735Z,11.30
2019-03-25T14:31:39.600Z,11.00
2019-03-25T14:34:09.391Z,10.60
2019-03-25T14:36:39.340Z,10.40
2019-03-25T14:39:09.226Z,10.40
2019-03-25T14:41:39.078Z,10.30
2019-03-25T14:44:09.005Z,10.20
2019-03-25T14:46:38.857Z,10.10
2019-03-25T14:49:09.901Z,9.90
2019-03-25T14:51:39.906Z,9.80
2019-03-25T14:54:09.783Z,9.70
2019-03-25T14:56:40.008Z,9.70
2019-03-25T14:59:09.894Z,9.70
2019-03-25T15:01:39.775Z,9.60
2019-03-25T15:04:09.596Z,9.60
2019-03-25T15:06:39.451Z,9.50
2019-03-25T15:09:12.757Z,9.50
2019-03-25T15:11:42.557Z,9.30
2019-03-25T15:14:12.452Z,8.80
2019-03-25T15:16:43.238Z,8.40
2019-03-25T15:19:13.192Z,8.20
2019-03-25T15:21:43.075Z,8.10
2019-03-25T15:24:13.035Z,8.10
2019-03-25T15:26:42.855Z,8.10
2019-03-25T15:29:12.919Z,8.00
2019-03-25T15:31:42.861Z,8.00
2019-03-25T15:34:12.845Z,7.90
2019-03-25T15:36:43.129Z,7.80
2019-03-25T15:39:12.926Z,7.70
2019-03-25T15:41:42.838Z,7.70
2019-03-25T15:44:12.706Z,7.80
2019-03-25T15:46:42.586Z,7.80
2019-03-25T15:49:12.462Z,7.80
2019-03-25T15:51:43.878Z,7.70
2019-03-25T15:54:13.883Z,7.80
2019-03-25T15:56:44.191Z,7.90
2019-03-25T15:59:14.292Z,8.10
2019-03-25T16:01:44.174Z,8.30
2019-03-25T16:04:14.118Z,8.30
2019-03-25T16:06:43.954Z,8.20
2019-03-25T16:09:13.827Z,8.10
2019-03-25T16:11:43.818Z,7.90
2019-03-25T16:14:13.737Z,7.90
2019-03-25T16:16:43.587Z,7.50
2019-03-25T16:19:13.540Z,7.20
2019-03-25T16:21:43.431Z,6.80
2019-03-25T16:24:13.343Z,6.60
2019-03-25T16:26:43.108Z,6.50
2019-03-25T16:29:12.980Z,6.50
2019-03-25T16:31:42.780Z,6.40
2019-03-25T16:34:12.623Z,6.40
2019-03-25T16:36:42.521Z,6.40
2019-03-25T16:39:12.387Z,6.40
2019-03-25T16:41:42.270Z,6.40
2019-03-25T16:44:12.066Z,6.40
2019-03-25T16:46:41.924Z,6.40
2019-03-25T16:49:11.831Z,6.20
2019-03-25T16:51:42.635Z,6.00
2019-03-25T16:54:12.394Z,5.70
2019-03-25T16:56:42.297Z,5.60
2019-03-25T16:59:12.183Z,5.50
2019-03-25T17:01:42.065Z,5.50
2019-03-25T17:04:11.824Z,5.50
2019-03-25T17:06:41.746Z,5.50
2019-03-25T17:09:11.628Z,5.50
2019-03-25T17:11:41.514Z,5.50
2019-03-25T17:14:11.919Z,5.50
2019-03-25T17:16:41.815Z,5.50
2019-03-25T17:19:11.690Z,5.50
2019-03-25T17:21:41.555Z,5.40
2019-03-25T17:24:11.361Z,5.40
2019-03-25T17:26:42.499Z,5.40
2019-03-25T17:29:12.845Z,5.40
2019-03-25T17:31:42.753Z,5.30
2019-03-25T17:34:12.690Z,5.30
2019-03-25T17:36:42.473Z,5.30
2019-03-25T17:39:12.411Z,5.30
2019-03-25T17:41:42.307Z,5.20
2019-03-25T17:44:12.243Z,5.20
2019-03-25T17:46:42.050Z,5.20
2019-03-25T17:49:11.909Z,5.20
2019-03-25T17:51:41.834Z,5.10
2019-03-25T17:54:11.698Z,5.10
2019-03-25T17:56:41.518Z,5.10
2019-03-25T17:59:11.402Z,5.10
2019-03-25T18:01:41.334Z,5.10
2019-03-25T18:04:11.120Z,5.00
2019-03-25T18:06:40.966Z,5.00
2019-03-25T18:09:11.615Z,4.90
2019-03-25T18:11:41.527Z,4.90
2019-03-25T18:14:11.424Z,4.90
2019-03-25T18:16:41.309Z,4.80
2019-03-25T18:19:11.180Z,4.80
2019-03-25T18:21:41.175Z,4.80
2019-03-25T18:24:11.021Z,4.80
2019-03-25T18:26:40.884Z,4.80
2019-03-25T18:29:11.119Z,4.80
2019-03-25T18:31:43.634Z,4.80
2019-03-25T18:34:12.478Z,4.80
2019-03-25T18:36:42.411Z,4.80
2019-03-25T18:39:12.262Z,4.80
2019-03-25T18:41:42.903Z,4.80
2019-03-25T18:44:13.098Z,4.90
2019-03-25T18:46:42.881Z,4.80
2019-03-25T18:49:13.412Z,4.80
2019-03-25T18:51:43.424Z,4.80
2019-03-25T18:54:13.420Z,4.80
2019-03-25T18:56:43.323Z,4.80
2019-03-25T18:59:13.215Z,4.80
2019-03-25T19:01:53.870Z,4.70
2019-03-25T19:04:14.486Z,4.80
2019-03-25T19:06:45.844Z,4.70
2019-03-25T19:09:15.707Z,4.70
2019-03-25T19:11:45.525Z,4.70
2019-03-25T19:14:15.438Z,4.80
2019-03-25T19:16:45.578Z,4.70
2019-03-25T19:19:16.585Z,4.80
2019-03-25T19:21:46.534Z,4.70
2019-03-25T19:24:16.326Z,4.70
2019-03-25T19:26:46.184Z,4.70
2019-03-25T19:29:16.090Z,4.70
2019-03-25T19:31:45.881Z,4.70
2019-03-25T19:34:15.730Z,4.70
2019-03-25T19:36:45.740Z,4.70
2019-03-25T19:39:15.591Z,4.70
2019-03-25T19:41:45.463Z,4.70
2019-03-25T19:44:15.380Z,4.70
2019-03-25T19:46:45.269Z,4.70
2019-03-25T19:49:15.186Z,4.60
2019-03-25T19:51:45.115Z,4.50
2019-03-25T19:54:14.894Z,4.50
2019-03-25T19:56:44.786Z,4.40
2019-03-25T19:59:15.268Z,4.40
2019-03-25T20:01:45.077Z,4.40
2019-03-25T20:04:14.966Z,4.40
2019-03-25T20:06:45.105Z,4.30
2019-03-25T20:09:14.931Z,4.30
2019-03-25T20:11:44.751Z,4.30
2019-03-25T20:14:14.616Z,4.30
2019-03-25T20:16:44.437Z,4.30
2019-03-25T20:19:14.279Z,4.30
2019-03-25T20:21:44.075Z,4.40
2019-03-25T20:24:13.948Z,4.40
2019-03-25T20:26:43.794Z,4.40
2019-03-25T20:29:13.581Z,4.40
2019-03-25T20:31:43.466Z,4.40
2019-03-25T20:34:15.247Z,4.40
2019-03-25T20:36:45.050Z,4.40
2019-03-25T20:39:14.953Z,4.40
2019-03-25T20:41:44.713Z,4.40
2019-03-25T20:44:14.649Z,4.40
2019-03-25T20:46:44.510Z,4.40
2019-03-25T20:49:14.326Z,4.40
2019-03-25T20:51:44.187Z,4.40
2019-03-25T20:54:14.083Z,4.40
2019-03-25T20:56:44.412Z,4.40
2019-03-25T20:59:15.007Z,4.40
2019-03-25T21:01:45.163Z,4.40
2019-03-25T21:04:15.018Z,4.40
2019-03-25T21:06:45.026Z,4.40
2019-03-25T21:09:15.025Z,4.40
2019-03-25T21:11:44.961Z,4.40
2019-03-25T21:14:14.911Z,4.40
2019-03-25T21:16:44.788Z,4.40
2019-03-25T21:19:14.671Z,4.30
2019-03-25T21:21:44.606Z,4.30
2019-03-25T21:24:14.937Z,4.30
2019-03-25T21:26:44.737Z,4.20
2019-03-25T21:29:14.565Z,4.20
2019-03-25T21:31:44.484Z,4.20
2019-03-25T21:34:14.366Z,4.20
2019-03-25T21:36:44.300Z,4.20
2019-03-25T21:39:14.241Z,4.20
2019-03-25T21:41:44.084Z,4.20
2019-03-25T21:44:14.241Z,4.20
2019-03-25T21:46:44.028Z,4.10
2019-03-25T21:49:13.866Z,4.10
2019-03-25T21:51:43.833Z,4.10
2019-03-25T21:54:13.687Z,4.00
2019-03-25T21:56:43.571Z,4.10
2019-03-25T21:59:13.452Z,4.10
2019-03-25T22:01:43.451Z,4.00
2019-03-25T22:04:13.279Z,4.00
2019-03-25T22:06:43.176Z,4.00
2019-03-25T22:09:12.986Z,4.00
2019-03-25T22:11:42.854Z,3.90
2019-03-25T22:14:12.753Z,3.90
2019-03-25T22:16:42.618Z,3.90
2019-03-25T22:19:12.423Z,3.90
2019-03-25T22:21:42.330Z,3.80
2019-03-25T22:24:12.114Z,3.80
2019-03-25T22:26:41.966Z,3.80
2019-03-25T22:29:11.936Z,3.80
2019-03-25T22:31:43.823Z,3.80
2019-03-25T22:34:14.509Z,3.70
2019-03-25T22:36:44.423Z,3.70
2019-03-25T22:39:14.241Z,3.70
2019-03-25T22:41:44.121Z,3.70
2019-03-25T22:44:14.013Z,3.60
2019-03-25T22:46:43.803Z,3.60
2019-03-25T22:49:13.662Z,3.40
2019-03-25T22:51:43.525Z,3.40
2019-03-25T22:54:13.407Z,3.40
2019-03-25T22:56:43.318Z,3.40
2019-03-25T22:59:13.094Z,3.40
2019-03-25T23:01:42.943Z,3.30
2019-03-25T23:04:12.842Z,3.30
2019-03-25T23:06:44.042Z,3.30
2019-03-25T23:09:13.838Z,3.30
2019-03-25T23:11:43.636Z,3.40
2019-03-25T23:14:13.960Z,3.40
2019-03-25T23:16:43.768Z,3.40
2019-03-25T23:19:13.695Z,3.40
2019-03-25T23:21:43.500Z,3.50
2019-03-25T23:24:13.289Z,3.50
2019-03-25T23:26:43.437Z,3.50
2019-03-25T23:29:13.232Z,3.50
2019-03-25T23:31:43.540Z,3.50
2019-03-25T23:34:13.670Z,3.50
2019-03-25T23:36:43.479Z,3.60
2019-03-25T23:39:13.371Z,3.60
2019-03-25T23:41:43.223Z,3.50
2019-03-25T23:44:13.080Z,3.60
2019-03-25T23:46:42.892Z,3.60
2019-03-25T23:49:12.682Z,3.70
2019-03-25T23:51:42.462Z,3.70
2019-03-25T23:54:12.928Z,3.80
2019-03-25T23:56:43.284Z,3.80
2019-03-25T23:59:13.192Z,3.70
